Time;durP1;ratioP1;P1;durP2;ratioP2;P2;SDS_P1;SDS_P2;PMS_P1;PMS_P2;Temp;Humidity;BMP_temperature;BMP_pressure;BME280_temperature;BME280_humidity;BME280_pressure;Samples;Min_cycle;Max_cycle;Signal;HPM_P1;HPM_P2
2022/08/02 00:00:55;;;;;;;4.18;3.47;;;21.70;99.90;;;;;;5057830;28;20557;-72
2022/08/02 00:03:22;;;;;;;4.15;3.33;;;21.70;99.90;;;;;;5074106;28;20220;-73
2022/08/02 00:05:48;;;;;;;6.95;3.35;;;21.70;99.90;;;;;;5062876;28;20206;-72
2022/08/02 00:08:15;;;;;;;3.88;3.25;;;21.70;99.90;;;;;;5073136;28;20573;-73
2022/08/02 00:10:42;;;;;;;3.63;3.30;;;21.70;99.90;;;;;;5069348;28;20646;-72
2022/08/02 00:13:09;;;;;;;5.63;3.40;;;21.70;99.90;;;;;;5060257;28;20212;-72
2022/08/02 00:15:35;;;;;;;3.47;3.08;;;21.70;99.90;;;;;;5065024;28;20562;-72
2022/08/02 00:18:04;;;;;;;6.32;3.25;;;21.60;99.90;;;;;;5056807;28;20211;-72
2022/08/02 00:20:30;;;;;;;4.88;3.15;;;21.60;99.90;;;;;;5071282;28;20240;-72
2022/08/02 00:22:57;;;;;;;3.88;3.47;;;21.60;99.90;;;;;;5071730;28;20583;-73
2022/08/02 00:25:24;;;;;;;4.68;3.30;;;21.50;99.90;;;;;;5058706;28;20240;-72
2022/08/02 00:27:51;;;;;;;5.85;2.95;;;21.50;99.90;;;;;;5073921;28;20210;-72
2022/08/02 00:30:17;;;;;;;3.50;3.20;;;21.50;99.90;;;;;;5069466;28;20205;-72
2022/08/02 00:32:44;;;;;;;4.18;3.72;;;21.50;99.90;;;;;;5060357;28;20208;-73
2022/08/02 00:35:12;;;;;;;6.53;4.05;;;21.40;99.90;;;;;;5074188;28;20201;-72
2022/08/02 00:37:40;;;;;;;5.18;3.35;;;21.40;99.90;;;;;;5073427;28;20205;-72
2022/08/02 00:40:08;;;;;;;3.65;3.35;;;21.40;99.90;;;;;;5047770;28;20284;-72
2022/08/02 00:42:35;;;;;;;3.90;3.45;;;21.40;99.90;;;;;;5056828;28;20209;-73
2022/08/02 00:45:01;;;;;;;3.80;3.10;;;21.40;99.90;;;;;;5057821;28;20672;-72
2022/08/02 00:47:28;;;;;;;4.55;3.50;;;21.40;99.90;;;;;;5055281;28;20650;-72
2022/08/02 00:49:55;;;;;;;4.05;3.58;;;21.40;99.90;;;;;;5072137;28;20217;-72
2022/08/02 00:52:24;;;;;;;3.55;3.25;;;21.40;99.90;;;;;;5073397;28;20601;-72
2022/08/02 00:54:50;;;;;;;4.55;3.70;;;21.40;99.90;;;;;;5053492;28;20201;-72
2022/08/02 00:57:17;;;;;;;3.95;3.55;;;21.30;99.90;;;;;;5073418;28;20228;-72
2022/08/02 00:59:44;;;;;;;4.63;3.45;;;21.30;99.90;;;;;;5069987;28;20212;-73
2022/08/02 01:02:11;;;;;;;5.70;4.10;;;21.30;99.90;;;;;;5058617;28;20209;-72
2022/08/02 01:04:38;;;;;;;4.43;3.67;;;21.30;99.90;;;;;;5058727;28;20715;-74
2022/08/02 01:07:05;;;;;;;4.47;3.25;;;21.30;99.90;;;;;;5072122;28;20223;-74
2022/08/02 01:09:33;;;;;;;6.18;3.92;;;21.30;99.90;;;;;;5064568;28;20205;-73
2022/08/02 01:12:00;;;;;;;4.10;3.63;;;21.30;99.90;;;;;;5071368;28;20201;-74
2022/08/02 01:14:27;;;;;;;4.97;3.65;;;21.30;99.90;;;;;;5071631;28;20205;-72
2022/08/02 01:17:02;;;;;;;4.85;3.58;;;21.20;99.90;;;;;;5051321;28;20234;-73
2022/08/02 01:19:37;;;;;;;5.70;3.25;;;21.30;99.90;;;;;;5066287;28;20245;-73
2022/08/02 01:22:18;;;;;;;3.85;3.28;;;21.20;99.90;;;;;;5072108;28;20207;-74
2022/08/02 01:25:12;;;;;;;5.22;3.83;;;21.20;99.90;;;;;;5041342;28;20230;-73
2022/08/02 01:27:50;;;;;;;3.92;3.53;;;21.20;99.90;;;;;;5060375;28;20663;-73
2022/08/02 01:30:19;;;;;;;5.63;3.78;;;21.10;99.90;;;;;;5070585;28;20579;-74
2022/08/02 01:32:53;;;;;;;5.70;3.75;;;21.10;99.90;;;;;;5063235;28;20678;-73
2022/08/02 01:35:25;;;;;;;4.00;3.50;;;21.10;99.90;;;;;;5058263;28;20197;-73
2022/08/02 01:37:56;;;;;;;5.72;3.90;;;21.10;99.90;;;;;;5067001;28;20198;-73
2022/08/02 01:40:29;;;;;;;5.13;3.40;;;21.10;99.90;;;;;;5065451;28;20244;-73
2022/08/02 01:42:56;;;;;;;5.57;3.40;;;21.10;99.90;;;;;;5072343;28;20662;-73
2022/08/02 01:45:26;;;;;;;5.80;3.53;;;21.10;99.90;;;;;;5072609;28;20264;-74
2022/08/02 01:47:54;;;;;;;4.63;4.18;;;21.10;99.90;;;;;;5071739;28;20221;-73
2022/08/02 01:50:26;;;;;;;5.32;4.20;;;21.10;99.90;;;;;;5067631;28;20201;-73
2022/08/02 01:52:57;;;;;;;4.93;3.53;;;21.10;99.90;;;;;;5065862;28;20212;-73
2022/08/02 01:55:27;;;;;;;5.68;3.55;;;21.10;99.90;;;;;;5074256;28;20208;-73
2022/08/02 01:57:58;;;;;;;5.75;3.88;;;21.00;99.90;;;;;;5070124;28;20201;-72
2022/08/02 02:00:31;;;;;;;6.45;3.78;;;21.00;99.90;;;;;;5073625;28;20711;-73
2022/08/02 02:02:59;;;;;;;5.70;3.47;;;21.00;99.90;;;;;;5061937;28;20202;-74
2022/08/02 02:05:29;;;;;;;6.35;3.80;;;20.90;99.90;;;;;;5052617;28;20230;-74
2022/08/02 02:07:58;;;;;;;4.80;3.63;;;20.90;99.90;;;;;;5050588;28;20210;-74
2022/08/02 02:10:28;;;;;;;3.67;3.38;;;20.90;99.90;;;;;;5068314;28;20665;-74
2022/08/02 02:12:56;;;;;;;4.32;3.92;;;20.80;99.90;;;;;;5071822;28;20205;-72
2022/08/02 02:15:24;;;;;;;5.40;4.13;;;20.80;99.90;;;;;;5067209;28;20562;-75
2022/08/02 02:17:54;;;;;;;5.22;4.25;;;20.80;99.90;;;;;;5057767;28;20220;-74
2022/08/02 02:20:21;;;;;;;4.30;3.65;;;20.70;99.90;;;;;;5073509;28;20533;-74
2022/08/02 02:22:49;;;;;;;4.90;4.15;;;20.70;99.90;;;;;;5057779;28;20203;-74
2022/08/02 02:25:19;;;;;;;4.40;3.22;;;20.70;99.90;;;;;;5076507;28;20375;-74
2022/08/02 02:28:01;;;;;;;4.47;3.50;;;20.70;99.90;;;;;;5078618;28;20653;-74
2022/08/02 02:30:29;;;;;;;6.13;4.00;;;20.60;99.90;;;;;;5075946;28;20225;-73
2022/08/02 02:33:00;;;;;;;6.13;4.07;;;20.60;99.90;;;;;;5059824;28;20216;-74
2022/08/02 02:35:31;;;;;;;5.65;4.47;;;20.60;99.90;;;;;;5061100;28;20213;-74
2022/08/02 02:38:02;;;;;;;5.05;4.25;;;20.60;99.90;;;;;;5054366;28;20198;-74
2022/08/02 02:40:30;;;;;;;4.72;4.32;;;20.60;99.90;;;;;;5066678;28;20228;-75
2022/08/02 02:43:00;;;;;;;4.22;3.72;;;20.60;99.90;;;;;;5076563;28;20582;-73
2022/08/02 02:45:28;;;;;;;6.90;4.82;;;20.60;99.90;;;;;;5076250;28;20216;-73
2022/08/02 02:47:58;;;;;;;5.15;4.65;;;20.60;99.90;;;;;;5076641;28;20201;-73
2022/08/02 02:50:25;;;;;;;6.25;4.43;;;20.60;99.90;;;;;;5065869;28;20551;-73
2022/08/02 02:52:53;;;;;;;5.57;4.70;;;20.60;99.90;;;;;;5073457;28;20216;-73
2022/08/02 02:55:21;;;;;;;4.88;4.30;;;20.60;99.90;;;;;;5071951;28;20205;-72
2022/08/02 02:57:48;;;;;;;5.90;4.68;;;20.60;99.90;;;;;;5070691;28;20197;-72
2022/08/02 03:00:15;;;;;;;5.57;4.50;;;20.60;99.90;;;;;;5067629;28;20214;-74
2022/08/02 03:02:44;;;;;;;7.55;4.78;;;20.60;99.90;;;;;;5061464;28;20210;-73
2022/08/02 03:05:13;;;;;;;6.55;4.32;;;20.60;99.90;;;;;;5047797;28;20693;-73
2022/08/02 03:07:39;;;;;;;7.72;5.05;;;20.60;99.90;;;;;;5069227;28;20199;-73
2022/08/02 03:10:08;;;;;;;4.63;4.22;;;20.50;99.90;;;;;;5063481;28;20213;-73
2022/08/02 03:12:35;;;;;;;6.30;4.45;;;20.50;99.90;;;;;;5073962;28;20217;-74
2022/08/02 03:15:06;;;;;;;5.25;4.55;;;20.50;99.90;;;;;;5074673;28;20237;-74
2022/08/02 03:17:41;;;;;;;5.22;4.72;;;20.50;99.90;;;;;;5046811;28;20203;-74
2022/08/02 03:20:15;;;;;;;5.97;4.72;;;20.50;99.90;;;;;;5066232;28;20232;-73
2022/08/02 03:22:43;;;;;;;6.28;5.18;;;20.40;99.90;;;;;;5077071;28;20209;-73
2022/08/02 03:25:11;;;;;;;8.82;6.22;;;20.50;99.90;;;;;;5074474;28;20229;-73
2022/08/02 03:27:37;;;;;;;6.65;5.78;;;20.40;99.90;;;;;;5074999;28;20209;-74
2022/08/02 03:30:06;;;;;;;5.95;5.32;;;20.40;99.90;;;;;;5072353;28;20597;-73
2022/08/02 03:32:34;;;;;;;7.53;5.88;;;20.40;99.90;;;;;;5072494;28;20224;-73
2022/08/02 03:35:02;;;;;;;9.73;5.68;;;20.50;99.90;;;;;;5052536;28;20207;-74
2022/08/02 03:37:31;;;;;;;10.55;6.03;;;20.50;99.90;;;;;;5073608;28;20209;-73
2022/08/02 03:39:58;;;;;;;9.48;6.38;;;20.50;99.90;;;;;;5075450;28;20209;-74
2022/08/02 03:42:27;;;;;;;9.18;6.28;;;20.50;99.90;;;;;;5075802;28;20205;-73
2022/08/02 03:44:56;;;;;;;7.85;5.95;;;20.50;99.90;;;;;;5073593;28;20225;-74
2022/08/02 03:47:24;;;;;;;5.90;5.20;;;20.50;99.90;;;;;;5070292;28;20209;-73
2022/08/02 03:49:52;;;;;;;8.48;5.80;;;20.50;99.90;;;;;;5053151;28;20226;-73
2022/08/02 03:52:19;;;;;;;7.75;5.53;;;20.50;99.90;;;;;;5070746;28;20206;-73
2022/08/02 03:54:48;;;;;;;8.02;6.55;;;20.60;99.90;;;;;;5057191;28;20590;-74
2022/08/02 03:57:15;;;;;;;8.80;5.97;;;20.60;99.90;;;;;;5067122;28;20224;-72
2022/08/02 03:59:43;;;;;;;6.53;5.65;;;20.60;99.90;;;;;;5075074;28;20212;-73
2022/08/02 04:02:10;;;;;;;8.43;6.22;;;20.60;99.90;;;;;;5071866;28;20653;-74
2022/08/02 04:04:38;;;;;;;8.50;6.13;;;20.70;99.90;;;;;;5054803;28;20202;-74
2022/08/02 04:07:05;;;;;;;8.63;6.18;;;20.70;99.90;;;;;;5072200;28;20212;-74
2022/08/02 04:09:32;;;;;;;7.07;5.28;;;20.70;99.90;;;;;;5064872;28;20210;-74
2022/08/02 04:12:00;;;;;;;11.93;5.22;;;20.70;99.90;;;;;;5075090;28;20209;-73
2022/08/02 04:14:27;;;;;;;6.38;5.68;;;20.70;99.90;;;;;;5071760;28;20219;-73
2022/08/02 04:16:58;;;;;;;5.57;5.03;;;20.80;99.90;;;;;;5045879;28;20646;-73
2022/08/02 04:19:31;;;;;;;8.77;5.88;;;20.80;99.90;;;;;;5054903;28;20574;-73
2022/08/02 04:22:03;;;;;;;6.20;5.22;;;20.80;99.90;;;;;;5063139;28;20217;-73
2022/08/02 04:24:43;;;;;;;13.77;5.18;;;20.80;99.90;;;;;;5073538;28;20487;-73
2022/08/02 04:27:13;;;;;;;6.05;5.50;;;20.90;99.90;;;;;;5072600;28;20247;-72
2022/08/02 04:29:41;;;;;;;8.93;5.50;;;20.80;99.90;;;;;;5074305;28;20213;-72
2022/08/02 04:32:09;;;;;;;7.45;5.10;;;20.90;99.90;;;;;;5057662;28;20224;-73
2022/08/02 04:34:36;;;;;;;5.80;5.20;;;20.90;99.90;;;;;;5066033;28;20225;-73
2022/08/02 04:37:03;;;;;;;7.70;5.25;;;20.90;99.90;;;;;;5066517;28;20204;-73
2022/08/02 04:39:29;;;;;;;6.57;4.93;;;20.90;99.90;;;;;;5061075;28;20197;-73
2022/08/02 04:41:56;;;;;;;5.40;4.80;;;20.90;99.90;;;;;;5073515;28;20216;-73
2022/08/02 04:44:24;;;;;;;7.07;4.45;;;20.90;99.90;;;;;;5073891;28;20205;-73
2022/08/02 04:46:53;;;;;;;9.95;4.82;;;20.90;99.90;;;;;;5073268;28;20221;-72
2022/08/02 04:49:20;;;;;;;7.00;5.35;;;20.90;99.90;;;;;;5062759;28;20720;-73
2022/08/02 04:51:46;;;;;;;10.23;5.30;;;20.90;99.90;;;;;;5054128;28;20213;-73
2022/08/02 04:54:13;;;;;;;6.90;4.68;;;20.90;99.90;;;;;;5063131;28;20213;-73
2022/08/02 04:56:41;;;;;;;8.60;5.35;;;20.90;99.90;;;;;;5072578;28;20205;-74
2022/08/02 04:59:08;;;;;;;6.93;5.05;;;20.90;99.90;;;;;;5073718;28;20217;-73
2022/08/02 05:01:36;;;;;;;9.18;5.57;;;21.00;99.90;;;;;;5055570;28;20716;-73
2022/08/02 05:04:03;;;;;;;5.90;5.38;;;21.00;99.90;;;;;;5061206;28;20213;-72
2022/08/02 05:06:30;;;;;;;7.50;4.95;;;21.00;99.90;;;;;;5066796;28;20214;-72
2022/08/02 05:08:57;;;;;;;9.15;5.72;;;21.00;99.90;;;;;;5058371;28;20215;-72
2022/08/02 05:11:24;;;;;;;5.75;4.82;;;21.00;99.90;;;;;;5067357;28;20213;-72
2022/08/02 05:13:51;;;;;;;9.10;5.03;;;21.00;99.90;;;;;;5074094;28;20231;-72
2022/08/02 05:16:18;;;;;;;6.78;5.20;;;21.00;99.90;;;;;;5066132;28;20213;-74
2022/08/02 05:18:46;;;;;;;7.57;5.13;;;21.00;99.90;;;;;;5056723;28;20205;-74
2022/08/02 05:21:13;;;;;;;6.50;5.10;;;21.10;99.90;;;;;;5061980;28;20595;-74
2022/08/02 05:23:40;;;;;;;7.15;5.25;;;21.20;99.90;;;;;;5067760;28;20209;-73
2022/08/02 05:26:06;;;;;;;7.63;5.55;;;21.20;99.90;;;;;;5057791;28;20232;-69
2022/08/02 05:28:33;;;;;;;5.32;4.80;;;21.20;99.90;;;;;;5058500;28;20637;-69
2022/08/02 05:31:00;;;;;;;9.65;4.90;;;21.30;99.90;;;;;;5059266;28;20221;-68
2022/08/02 05:33:27;;;;;;;8.15;5.53;;;21.40;99.90;;;;;;5051997;28;20221;-70
2022/08/02 05:35:57;;;;;;;10.00;4.82;;;21.40;99.90;;;;;;5053147;28;20210;-73
2022/08/02 05:38:24;;;;;;;8.55;5.40;;;21.60;99.90;;;;;;5065723;28;20259;-73
2022/08/02 05:40:51;;;;;;;10.15;4.88;;;21.60;99.90;;;;;;5058214;28;20206;-73
2022/08/02 05:43:20;;;;;;;6.90;4.95;;;21.70;99.90;;;;;;5044753;28;20218;-72
2022/08/02 05:45:46;;;;;;;10.93;4.68;;;21.80;99.90;;;;;;5054877;28;20245;-72
2022/08/02 05:48:13;;;;;;;5.88;4.32;;;21.90;99.90;;;;;;5046637;28;20694;-73
2022/08/02 05:50:45;;;;;;;9.38;4.78;;;22.00;99.90;;;;;;5045788;28;20213;-72
2022/08/02 05:53:23;;;;;;;6.97;4.28;;;22.00;99.90;;;;;;5056773;28;20212;-73
2022/08/02 05:55:57;;;;;;;5.05;3.63;;;22.10;99.90;;;;;;5050839;28;20206;-71
2022/08/02 05:58:41;;;;;;;6.28;3.75;;;22.20;99.90;;;;;;5051397;28;20198;-74
2022/08/02 06:01:12;;;;;;;10.45;3.50;;;22.30;99.90;;;;;;5046466;28;20214;-74
2022/08/02 06:03:44;;;;;;;5.85;4.40;;;22.30;99.90;;;;;;5042768;28;20301;-73
2022/08/02 06:06:14;;;;;;;10.43;5.85;;;22.30;99.90;;;;;;5052485;28;20383;-73
2022/08/02 06:08:45;;;;;;;8.63;4.70;;;22.40;99.90;;;;;;5047460;28;20229;-73
2022/08/02 06:11:14;;;;;;;9.63;6.00;;;22.40;99.90;;;;;;5052490;28;20220;-73
2022/08/02 06:13:42;;;;;;;7.05;4.78;;;22.30;99.90;;;;;;5052752;28;20216;-74
2022/08/02 06:16:09;;;;;;;11.35;6.15;;;22.40;99.90;;;;;;5047263;28;20352;-74
2022/08/02 06:18:36;;;;;;;15.05;8.23;;;22.50;99.90;;;;;;5053876;28;20202;-73
2022/08/02 06:21:05;;;;;;;12.07;6.45;;;22.50;99.90;;;;;;5051577;28;20797;-72
2022/08/02 06:23:32;;;;;;;11.82;6.80;;;22.60;99.90;;;;;;5054591;28;20439;-72
2022/08/02 06:26:02;;;;;;;9.07;5.20;;;22.70;99.90;;;;;;5055526;28;20260;-73
2022/08/02 06:28:30;;;;;;;9.85;4.78;;;22.90;99.90;;;;;;5049421;28;20255;-74
2022/08/02 06:30:58;;;;;;;8.20;4.80;;;23.10;99.90;;;;;;5052090;28;20505;-72
2022/08/02 06:33:25;;;;;;;11.80;5.10;;;23.20;99.90;;;;;;5067262;28;20205;-76
2022/08/02 06:36:01;;;;;;;8.30;5.22;;;23.40;99.90;;;;;;5051117;28;20207;-73
2022/08/02 06:38:32;;;;;;;9.38;4.47;;;23.60;99.90;;;;;;5047260;28;20658;-74
2022/08/02 06:41:04;;;;;;;7.68;3.72;;;23.70;99.90;;;;;;5058063;28;20201;-75
2022/08/02 06:43:40;;;;;;;22.08;10.70;;;23.80;99.90;;;;;;5058811;28;20270;-73
2022/08/02 06:46:07;;;;;;;18.70;9.95;;;23.90;99.90;;;;;;5050061;28;20469;-70
2022/08/02 06:48:35;;;;;;;11.68;6.05;;;24.00;99.90;;;;;;5062508;28;20210;-73
2022/08/02 06:51:02;;;;;;;10.75;6.20;;;24.00;99.90;;;;;;5055666;28;20708;-73
2022/08/02 06:53:29;;;;;;;5.70;3.40;;;24.10;99.90;;;;;;5056796;28;20268;-73
2022/08/02 06:55:56;;;;;;;11.75;3.88;;;24.20;99.90;;;;;;5057063;28;20202;-75
2022/08/02 06:58:24;;;;;;;5.82;4.72;;;24.30;99.90;;;;;;5058734;28;20205;-72
2022/08/02 07:00:51;;;;;;;3.75;2.15;;;24.30;99.90;;;;;;5055488;28;20224;-72
2022/08/02 07:03:18;;;;;;;3.40;2.55;;;24.30;99.90;;;;;;5055151;28;20210;-72
2022/08/02 07:05:47;;;;;;;3.70;2.63;;;24.30;99.90;;;;;;5048259;28;20202;-74
2022/08/02 07:08:14;;;;;;;3.63;2.95;;;24.40;99.90;;;;;;5047606;28;20206;-74
2022/08/02 07:10:41;;;;;;;3.95;2.50;;;24.50;99.90;;;;;;5056256;28;20209;-70
2022/08/02 07:13:08;;;;;;;4.43;2.63;;;24.60;99.90;;;;;;5054791;28;20206;-71
2022/08/02 07:15:37;;;;;;;2.67;2.13;;;24.70;99.50;;;;;;5044532;28;20219;-72
2022/08/02 07:18:04;;;;;;;3.65;2.00;;;24.80;98.80;;;;;;5051641;28;20612;-71
2022/08/02 07:20:31;;;;;;;3.33;1.90;;;24.90;98.10;;;;;;5057670;28;20234;-69
2022/08/02 07:22:58;;;;;;;2.13;1.70;;;25.10;97.90;;;;;;5057563;28;20210;-69
2022/08/02 07:25:26;;;;;;;6.93;1.80;;;25.20;97.10;;;;;;5053164;28;20344;-73
2022/08/02 07:27:53;;;;;;;4.68;2.22;;;25.30;96.40;;;;;;5056383;28;20587;-73
2022/08/02 07:30:20;;;;;;;2.65;1.90;;;25.30;96.10;;;;;;5053344;28;20218;-72
2022/08/02 07:32:48;;;;;;;5.18;1.70;;;25.40;96.40;;;;;;5050661;28;20672;-73
2022/08/02 07:35:15;;;;;;;2.15;1.67;;;25.40;96.10;;;;;;5048714;28;20206;-73
2022/08/02 07:37:45;;;;;;;4.30;1.40;;;25.40;95.50;;;;;;5061018;28;20606;-74
2022/08/02 07:40:12;;;;;;;1.58;1.48;;;25.50;95.00;;;;;;5052994;28;20213;-74
2022/08/02 07:42:39;;;;;;;2.92;1.40;;;25.50;94.40;;;;;;5049910;28;20217;-72
2022/08/02 07:45:07;;;;;;;2.28;1.40;;;25.60;93.80;;;;;;5042927;28;20210;-69
2022/08/02 07:47:36;;;;;;;5.72;1.80;;;25.50;93.30;;;;;;5058555;28;20221;-72
2022/08/02 07:50:05;;;;;;;3.42;1.90;;;25.60;92.70;;;;;;5054039;28;20601;-69
2022/08/02 07:52:32;;;;;;;2.58;1.70;;;25.60;93.00;;;;;;5052138;28;20213;-71
2022/08/02 07:55:00;;;;;;;11.70;2.10;;;25.60;92.90;;;;;;5050593;28;20693;-72
2022/08/02 07:57:26;;;;;;;3.35;2.38;;;25.70;92.80;;;;;;5050164;28;20573;-72
2022/08/02 07:59:53;;;;;;;5.68;1.75;;;26.00;92.70;;;;;;5047443;28;20206;-71
2022/08/02 08:02:20;;;;;;;4.07;1.60;;;26.30;91.90;;;;;;5049313;28;20578;-70
2022/08/02 08:04:47;;;;;;;4.07;1.60;;;26.50;91.30;;;;;;5056024;28;20643;-74
2022/08/02 08:07:15;;;;;;;3.10;1.98;;;26.70;90.50;;;;;;5051896;28;20236;-73
2022/08/02 08:09:42;;;;;;;2.22;1.20;;;26.90;90.00;;;;;;5055502;28;20202;-74
2022/08/02 08:12:10;;;;;;;8.43;1.80;;;27.20;88.20;;;;;;5053534;28;20225;-74
2022/08/02 08:14:38;;;;;;;10.25;4.40;;;27.40;87.40;;;;;;5053823;28;20213;-73
2022/08/02 08:17:06;;;;;;;10.63;3.50;;;27.50;86.80;;;;;;5054740;28;20210;-73
2022/08/02 08:19:33;;;;;;;2.30;1.67;;;27.70;86.00;;;;;;5057706;28;20234;-70
2022/08/02 08:22:00;;;;;;;5.70;1.83;;;27.80;83.70;;;;;;5045347;28;20206;-75
2022/08/02 08:24:29;;;;;;;5.47;1.63;;;27.70;82.40;;;;;;5045947;28;20201;-74
2022/08/02 08:26:56;;;;;;;5.25;2.25;;;27.70;82.10;;;;;;5048864;28;20241;-75
2022/08/02 08:29:25;;;;;;;2.67;1.88;;;27.60;81.10;;;;;;5048692;28;20218;-74
2022/08/02 08:31:52;;;;;;;1.85;1.30;;;27.60;81.60;;;;;;5046424;28;20252;-74
2022/08/02 08:34:19;;;;;;;2.30;1.35;;;27.60;80.40;;;;;;5048214;28;20697;-73
2022/08/02 08:36:46;;;;;;;4.43;1.42;;;27.60;80.10;;;;;;5050553;28;20284;-74
2022/08/02 08:39:13;;;;;;;2.85;1.45;;;27.70;79.50;;;;;;5054720;28;20460;-72
2022/08/02 08:41:46;;;;;;;2.58;1.27;;;27.70;79.20;;;;;;5050258;28;20213;-73
2022/08/02 08:44:13;;;;;;;53.78;25.02;;;27.80;78.50;;;;;;5049018;28;20194;-73
2022/08/02 08:46:42;;;;;;;7.18;3.83;;;28.00;78.60;;;;;;5035836;28;20240;-70
2022/08/02 08:49:14;;;;;;;5.13;2.80;;;28.30;78.20;;;;;;5042301;28;20605;-73
2022/08/02 08:51:43;;;;;;;6.63;3.78;;;28.50;76.90;;;;;;5048263;28;20259;-72
2022/08/02 08:54:15;;;;;;;3.88;2.30;;;28.70;76.10;;;;;;5049153;28;20210;-70
2022/08/02 08:56:43;;;;;;;9.55;4.60;;;28.80;75.80;;;;;;5047848;28;20199;-70
2022/08/02 08:59:10;;;;;;;8.20;4.07;;;28.80;76.50;;;;;;5053918;28;20209;-71
2022/08/02 09:01:37;;;;;;;9.77;3.47;;;28.70;75.60;;;;;;5044833;28;20594;-71
2022/08/02 09:04:04;;;;;;;4.65;2.20;;;28.70;75.40;;;;;;5049724;28;20202;-69
2022/08/02 09:06:31;;;;;;;3.47;2.20;;;28.80;75.40;;;;;;5054815;28;20222;-71
2022/08/02 09:08:58;;;;;;;6.00;2.40;;;29.00;74.90;;;;;;5052449;28;20213;-72
2022/08/02 09:11:25;;;;;;;11.00;4.22;;;29.20;74.40;;;;;;5053993;28;20214;-71
2022/08/02 09:13:55;;;;;;;4.78;2.58;;;29.20;74.10;;;;;;5053704;28;20666;-73
2022/08/02 09:16:34;;;;;;;4.32;2.40;;;29.30;74.20;;;;;;5043865;28;20202;-73
2022/08/02 09:19:15;;;;;;;6.82;2.30;;;29.50;74.00;;;;;;5044500;28;20210;-72
2022/08/02 09:21:43;;;;;;;4.10;2.15;;;29.60;73.70;;;;;;5047386;28;20216;-71
2022/08/02 09:24:18;;;;;;;2.50;2.20;;;29.80;72.80;;;;;;5051000;28;20584;-70
2022/08/02 09:26:45;;;;;;;4.95;2.47;;;30.00;71.40;;;;;;5041383;28;20228;-75
2022/08/02 09:29:14;;;;;;;4.30;2.00;;;30.10;70.80;;;;;;5044375;28;20645;-74
2022/08/02 09:31:42;;;;;;;3.15;1.60;;;30.40;70.60;;;;;;5051921;28;20202;-73
2022/08/02 09:34:09;;;;;;;3.17;2.05;;;30.70;69.70;;;;;;5072675;28;20197;-73
2022/08/02 09:36:40;;;;;;;4.75;1.70;;;30.90;67.70;;;;;;5067254;28;20207;-73
2022/08/02 09:39:09;;;;;;;1.85;1.50;;;31.10;66.40;;;;;;5067504;28;20662;-73
2022/08/02 09:41:39;;;;;;;1.70;1.50;;;31.10;66.20;;;;;;5055166;28;20320;-73
2022/08/02 09:44:08;;;;;;;4.93;1.65;;;31.00;66.70;;;;;;5067185;28;20224;-74
2022/08/02 09:46:38;;;;;;;3.47;1.75;;;30.80;65.40;;;;;;5052108;28;20209;-74
2022/08/02 09:49:07;;;;;;;4.20;1.88;;;30.70;65.00;;;;;;5056464;28;20237;-73
2022/08/02 09:51:36;;;;;;;3.78;1.92;;;30.70;64.80;;;;;;5076216;28;20259;-74
2022/08/02 09:54:05;;;;;;;4.82;2.10;;;30.80;64.40;;;;;;5068602;28;20213;-74
2022/08/02 09:56:42;;;;;;;4.07;2.08;;;30.90;64.50;;;;;;5066347;28;20228;-74
2022/08/02 09:59:09;;;;;;;2.75;1.60;;;31.10;63.70;;;;;;5069999;28;20216;-74
2022/08/02 10:01:38;;;;;;;1.75;1.55;;;31.30;63.50;;;;;;5037791;28;20199;-73
2022/08/02 10:04:08;;;;;;;3.92;1.58;;;31.40;63.40;;;;;;5050912;28;20252;-73
2022/08/02 10:06:35;;;;;;;3.80;2.25;;;31.60;63.30;;;;;;5049138;28;20225;-74
2022/08/02 10:09:02;;;;;;;1.85;1.73;;;31.80;62.50;;;;;;5043460;28;20294;-75
2022/08/02 10:11:30;;;;;;;3.17;1.73;;;31.80;61.30;;;;;;5040458;28;20206;-75
2022/08/02 10:13:57;;;;;;;1.95;1.60;;;31.90;61.60;;;;;;5045078;28;20205;-73
2022/08/02 10:16:25;;;;;;;2.60;1.60;;;31.80;61.50;;;;;;5050114;28;20203;-74
2022/08/02 10:18:55;;;;;;;1.63;1.52;;;31.70;61.40;;;;;;5050602;28;20219;-73
2022/08/02 10:21:29;;;;;;;2.45;1.80;;;31.70;61.70;;;;;;5042149;28;20666;-74
2022/08/02 10:24:04;;;;;;;5.07;2.00;;;31.80;61.80;;;;;;5054249;28;20202;-74
2022/08/02 10:26:32;;;;;;;4.10;1.70;;;31.70;61.40;;;;;;5060915;28;20229;-73
2022/08/02 10:28:59;;;;;;;4.88;2.17;;;31.80;61.50;;;;;;5074816;28;20203;-74
2022/08/02 10:31:30;;;;;;;1.92;1.50;;;31.80;61.10;;;;;;5068243;28;20240;-74
2022/08/02 10:34:01;;;;;;;6.40;1.75;;;31.70;61.00;;;;;;5076445;28;20291;-73
2022/08/02 10:36:31;;;;;;;1.95;1.60;;;31.70;61.60;;;;;;5070210;28;20209;-74
2022/08/02 10:38:59;;;;;;;5.38;1.80;;;31.90;61.40;;;;;;5068855;28;20293;-74
2022/08/02 10:41:43;;;;;;;4.72;2.00;;;32.20;61.50;;;;;;5058584;28;20300;-73
2022/08/02 10:44:21;;;;;;;2.92;1.70;;;32.50;60.90;;;;;;5073821;28;20235;-73
2022/08/02 10:46:48;;;;;;;3.35;1.50;;;32.80;60.10;;;;;;5062900;28;20286;-73
2022/08/02 10:49:17;;;;;;;1.83;1.65;;;33.00;60.10;;;;;;5059649;28;20205;-73
2022/08/02 10:52:09;;;;;;;3.13;1.90;;;33.00;59.40;;;;;;5079237;28;20207;-74
2022/08/02 10:54:38;;;;;;;2.97;1.90;;;33.00;59.40;;;;;;5059410;28;20736;-74
2022/08/02 10:57:16;;;;;;;2.33;1.80;;;32.90;59.60;;;;;;5050545;28;20195;-74
2022/08/02 10:59:43;;;;;;;3.47;2.40;;;32.70;60.00;;;;;;5043324;28;20205;-73
2022/08/02 11:02:11;;;;;;;4.45;2.10;;;32.60;60.20;;;;;;5052212;28;20212;-74
2022/08/02 11:05:08;;;;;;;3.53;2.00;;;32.60;60.50;;;;;;5078603;28;20564;-74
2022/08/02 11:07:38;;;;;;;4.25;1.67;;;32.90;59.90;;;;;;5080034;28;20237;-74
2022/08/02 11:10:27;;;;;;;2.53;2.00;;;33.10;59.40;;;;;;5051979;28;20201;-73
2022/08/02 11:13:10;;;;;;;2.90;2.05;;;33.30;58.60;;;;;;5053347;28;20694;-74
2022/08/02 11:15:52;;;;;;;5.40;2.40;;;33.50;58.30;;;;;;5064041;28;20272;-74
2022/08/02 11:18:20;;;;;;;5.75;2.30;;;33.50;57.70;;;;;;5055736;28;20213;-73
2022/08/02 11:21:10;;;;;;;7.13;2.85;;;33.20;58.10;;;;;;5078247;28;20796;-74
2022/08/02 11:23:38;;;;;;;2.70;1.90;;;33.10;58.50;;;;;;5077372;28;20227;-73
2022/08/02 11:26:44;;;;;;;2.17;1.80;;;33.20;58.60;;;;;;5076048;28;20312;-75
2022/08/02 11:29:11;;;;;;;3.75;2.05;;;33.20;58.50;;;;;;5068534;28;20221;-73
2022/08/02 11:31:42;;;;;;;4.00;2.08;;;33.20;58.80;;;;;;5059549;28;20580;-74
2022/08/02 11:34:10;;;;;;;3.13;1.85;;;33.10;58.60;;;;;;5063124;28;20217;-74
2022/08/02 11:36:46;;;;;;;3.78;2.00;;;33.20;58.30;;;;;;5057809;28;20217;-75
2022/08/02 11:39:14;;;;;;;5.35;2.20;;;33.40;58.30;;;;;;5072585;28;20201;-73
2022/08/02 11:41:41;;;;;;;3.75;2.33;;;33.50;58.10;;;;;;5066806;28;20699;-72
2022/08/02 11:44:08;;;;;;;4.20;2.33;;;33.70;57.50;;;;;;5073604;28;20680;-74
2022/08/02 11:46:36;;;;;;;3.38;2.80;;;33.80;57.10;;;;;;5060478;28;20202;-73
2022/08/02 11:49:13;;;;;;;2.90;2.30;;;33.70;57.00;;;;;;5058822;28;20232;-74
2022/08/02 11:51:50;;;;;;;3.22;2.40;;;33.30;57.60;;;;;;5050436;28;20206;-74
2022/08/02 11:54:23;;;;;;;2.45;2.20;;;33.00;57.80;;;;;;5051360;28;20209;-74
2022/08/02 11:56:50;;;;;;;3.20;2.75;;;32.70;57.90;;;;;;5062824;28;20205;-72
2022/08/02 11:59:17;;;;;;;4.22;2.25;;;32.60;58.20;;;;;;5063597;28;20252;-74
2022/08/02 12:01:44;;;;;;;2.72;2.40;;;32.30;58.60;;;;;;5049751;28;20209;-73
2022/08/02 12:04:11;;;;;;;3.50;2.25;;;32.10;58.90;;;;;;5067020;28;20628;-73
2022/08/02 12:06:38;;;;;;;3.47;2.83;;;31.90;59.50;;;;;;5056323;28;20210;-73
2022/08/02 12:09:08;;;;;;;5.93;2.80;;;31.80;59.60;;;;;;5049092;28;20241;-74
2022/08/02 12:11:36;;;;;;;7.30;3.03;;;31.80;59.70;;;;;;5074884;28;20727;-74
2022/08/02 12:14:03;;;;;;;5.00;2.75;;;31.90;59.90;;;;;;5074166;28;20680;-74
2022/08/02 12:19:22;;;;;;;5.50;2.65;;;32.40;59.80;;;;;;5062897;28;20791;-73
2022/08/02 12:21:49;;;;;;;5.63;2.63;;;32.80;59.70;;;;;;5061623;28;20670;-75
2022/08/02 12:24:28;;;;;;;2.22;2.03;;;33.00;59.30;;;;;;5048919;28;20206;-74
2022/08/02 12:26:55;;;;;;;2.95;2.35;;;33.20;58.30;;;;;;5052265;28;20233;-73
2022/08/02 12:29:30;;;;;;;3.30;2.55;;;33.30;58.10;;;;;;5043630;28;20871;-72
2022/08/02 12:31:57;;;;;;;7.47;2.65;;;33.40;58.20;;;;;;5047445;28;21911;-75
2022/08/02 12:34:24;;;;;;;3.00;2.20;;;33.40;58.20;;;;;;5061465;28;20205;-75
2022/08/02 12:36:59;;;;;;;4.85;2.45;;;33.40;57.40;;;;;;5074361;28;20212;-74
2022/08/02 12:39:37;;;;;;;2.88;2.45;;;33.30;57.40;;;;;;5065329;28;20199;-73
2022/08/02 12:42:04;;;;;;;3.42;2.10;;;33.00;57.40;;;;;;5062488;28;20661;-73
2022/08/02 12:44:32;;;;;;;2.90;2.55;;;32.80;57.80;;;;;;5075851;28;20216;-75
2022/08/02 12:47:00;;;;;;;2.70;2.28;;;32.60;58.10;;;;;;5066020;28;20222;-73
2022/08/02 12:49:27;;;;;;;2.40;2.20;;;32.50;58.40;;;;;;5058830;28;20562;-73
2022/08/02 12:51:54;;;;;;;4.22;2.30;;;32.60;58.60;;;;;;5065910;28;20582;-73
2022/08/02 12:54:22;;;;;;;4.68;2.40;;;32.80;58.50;;;;;;5072264;28;20236;-74
2022/08/02 12:56:51;;;;;;;4.45;2.30;;;32.80;57.80;;;;;;5058124;28;20295;-74
2022/08/02 12:59:33;;;;;;;3.60;2.38;;;32.50;58.30;;;;;;5048032;28;20214;-75